Time;durP1;ratioP1;P1;durP2;ratioP2;P2;SDS_P1;SDS_P2;PMS_P1;PMS_P2;Temp;Humidity;BMP_temperature;BMP_pressure;BME280_temperature;BME280_humidity;BME280_pressure;Samples;Min_cycle;Max_cycle;Signal;HPM_P1;HPM_P2
2022/11/21 00:00:52;;;;;;;43.35;25.45;;;1.20;99.90;;;;;;5058868;28;20032;-59
2022/11/21 00:03:38;;;;;;;40.63;24.95;;;1.20;99.90;;;;;;5086312;28;20065;-59
2022/11/21 00:06:24;;;;;;;42.00;25.05;;;1.20;99.90;;;;;;5086402;28;20035;-59
2022/11/21 00:09:10;;;;;;;40.28;24.58;;;1.20;99.90;;;;;;5071005;28;20033;-59
2022/11/21 00:11:56;;;;;;;44.30;25.30;;;1.20;99.90;;;;;;5087597;28;20024;-58
2022/11/21 00:14:41;;;;;;;40.85;24.95;;;1.20;99.90;;;;;;5071820;28;20028;-61
2022/11/21 00:17:27;;;;;;;38.63;24.58;;;1.30;99.90;;;;;;5063594;28;20123;-59
2022/11/21 00:20:14;;;;;;;44.38;26.08;;;1.30;99.90;;;;;;5077791;28;20210;-56
2022/11/21 00:23:00;;;;;;;45.38;27.83;;;1.20;99.90;;;;;;5092654;28;20033;-62
2022/11/21 00:25:48;;;;;;;46.45;26.85;;;1.20;99.90;;;;;;5076508;28;20078;-62
2022/11/21 00:28:34;;;;;;;42.95;28.52;;;1.20;99.90;;;;;;5077593;28;20114;-61
2022/11/21 00:31:25;;;;;;;46.53;27.83;;;1.20;99.90;;;;;;5076856;28;20261;-61
2022/11/21 00:34:11;;;;;;;44.60;26.77;;;1.20;99.90;;;;;;5049404;28;20514;-60
2022/11/21 00:36:59;;;;;;;45.75;27.73;;;1.20;99.90;;;;;;5091739;28;20164;-62
2022/11/21 00:39:45;;;;;;;43.53;28.20;;;1.20;99.90;;;;;;5091695;28;20559;-60
2022/11/21 00:42:31;;;;;;;47.60;29.85;;;1.30;99.90;;;;;;5076678;28;20407;-60
2022/11/21 00:45:19;;;;;;;46.70;28.58;;;1.20;99.90;;;;;;5076535;28;20035;-61
2022/11/21 00:48:05;;;;;;;48.53;27.48;;;1.20;99.90;;;;;;5077420;28;20119;-62
2022/11/21 00:50:51;;;;;;;41.08;26.25;;;1.10;99.90;;;;;;5059633;28;20028;-62
2022/11/21 00:53:37;;;;;;;47.35;27.27;;;1.10;99.90;;;;;;5076968;28;20029;-62
2022/11/21 00:56:23;;;;;;;50.45;30.45;;;1.10;99.90;;;;;;5072846;28;20059;-60
2022/11/21 00:59:09;;;;;;;51.05;30.20;;;1.10;99.90;;;;;;5045787;28;20040;-58
2022/11/21 01:01:55;;;;;;;50.47;29.40;;;1.00;99.90;;;;;;5074000;28;20081;-59
2022/11/21 01:04:41;;;;;;;49.70;29.98;;;1.00;99.90;;;;;;5060392;28;20028;-61
2022/11/21 01:07:30;;;;;;;49.15;29.20;;;1.00;99.90;;;;;;5059025;28;20024;-61
2022/11/21 01:10:16;;;;;;;53.30;30.48;;;0.90;99.90;;;;;;5089399;28;20032;-62
2022/11/21 01:13:02;;;;;;;51.15;29.60;;;0.90;99.90;;;;;;5078320;28;20500;-61
2022/11/21 01:15:48;;;;;;;54.05;30.85;;;0.80;99.90;;;;;;5092592;28;20032;-62
2022/11/21 01:18:34;;;;;;;54.05;30.80;;;0.80;99.90;;;;;;5078081;28;20177;-63
2022/11/21 01:21:23;;;;;;;49.75;30.13;;;0.80;99.90;;;;;;5057935;28;20028;-62
2022/11/21 01:24:12;;;;;;;54.45;31.10;;;0.80;99.90;;;;;;5069174;28;20020;-60
2022/11/21 01:26:58;;;;;;;53.13;30.40;;;0.70;99.90;;;;;;5064655;28;20522;-62
2022/11/21 01:29:44;;;;;;;55.97;31.05;;;0.70;99.90;;;;;;5083616;28;20093;-60
2022/11/21 01:32:30;;;;;;;54.85;31.50;;;0.70;99.90;;;;;;5092381;28;20039;-61
2022/11/21 01:35:17;;;;;;;49.33;29.77;;;0.70;99.90;;;;;;5071113;28;20079;-63
2022/11/21 01:38:03;;;;;;;51.72;30.50;;;0.70;99.90;;;;;;5089443;28;20058;-61
2022/11/21 01:40:49;;;;;;;51.03;31.38;;;0.60;99.90;;;;;;5092788;28;20381;-60
2022/11/21 01:43:35;;;;;;;51.90;30.25;;;0.60;99.90;;;;;;5057943;28;20480;-61
2022/11/21 01:46:22;;;;;;;54.33;31.30;;;0.60;99.90;;;;;;5072229;28;20099;-63
2022/11/21 01:49:21;;;;;;;54.90;31.42;;;0.70;99.90;;;;;;5092566;28;20107;-59
2022/11/21 01:52:14;;;;;;;53.20;29.70;;;0.70;99.90;;;;;;5085700;28;20039;-60
2022/11/21 01:55:08;;;;;;;58.92;30.10;;;0.70;99.90;;;;;;5057978;28;20048;-59
2022/11/21 01:57:54;;;;;;;57.10;30.67;;;0.60;99.90;;;;;;5085664;28;20074;-59
2022/11/21 02:00:42;;;;;;;48.83;29.00;;;0.60;99.90;;;;;;5092124;28;20028;-62
2022/11/21 02:03:32;;;;;;;51.03;28.60;;;0.70;99.90;;;;;;5076834;28;20025;-58
2022/11/21 02:06:19;;;;;;;51.60;30.00;;;0.80;99.90;;;;;;5073097;28;20443;-61
2022/11/21 02:09:09;;;;;;;47.47;28.90;;;0.70;99.90;;;;;;5053707;28;20028;-63
2022/11/21 02:12:00;;;;;;;53.30;29.10;;;0.70;99.90;;;;;;5090876;28;20027;-59
2022/11/21 02:14:46;;;;;;;49.53;27.73;;;0.70;99.90;;;;;;5091973;28;20036;-60
2022/11/21 02:17:32;;;;;;;49.40;28.83;;;0.80;99.90;;;;;;5077102;28;20029;-61
2022/11/21 02:20:21;;;;;;;48.92;29.13;;;0.80;99.90;;;;;;5073435;28;20025;-61
2022/11/21 02:23:18;;;;;;;47.53;28.83;;;0.90;99.90;;;;;;5071791;28;20016;-61
2022/11/21 02:26:04;;;;;;;45.38;26.60;;;0.90;99.90;;;;;;5074976;28;20042;-59
2022/11/21 02:28:50;;;;;;;46.40;28.80;;;0.90;99.90;;;;;;5089726;28;20055;-60
2022/11/21 02:31:36;;;;;;;50.95;27.83;;;0.90;99.90;;;;;;5070703;28;20437;-61
2022/11/21 02:34:21;;;;;;;49.33;28.67;;;0.80;99.90;;;;;;5097136;28;20501;-60
2022/11/21 02:37:09;;;;;;;51.90;28.85;;;0.90;99.90;;;;;;5083509;28;20102;-61
2022/11/21 02:39:57;;;;;;;49.33;30.38;;;0.80;99.90;;;;;;5111760;28;20027;-62
2022/11/21 02:42:54;;;;;;;50.15;30.02;;;0.80;99.90;;;;;;5098007;28;20021;-61
2022/11/21 02:45:42;;;;;;;55.95;32.08;;;0.70;99.90;;;;;;5092247;28;20051;-60
2022/11/21 02:48:28;;;;;;;53.70;30.95;;;0.60;99.90;;;;;;5073462;28;20023;-60
2022/11/21 02:51:14;;;;;;;53.45;31.58;;;0.60;99.90;;;;;;5071863;28;20025;-60
2022/11/21 02:54:00;;;;;;;50.30;29.05;;;0.60;99.90;;;;;;5073415;28;20033;-60
2022/11/21 02:56:46;;;;;;;55.72;31.05;;;0.60;99.90;;;;;;5074778;28;20032;-61
2022/11/21 02:59:32;;;;;;;50.58;30.02;;;0.50;99.90;;;;;;5091157;28;20125;-60
2022/11/21 03:02:18;;;;;;;55.58;29.95;;;0.50;99.90;;;;;;5068606;28;20027;-61
2022/11/21 03:05:06;;;;;;;58.72;30.88;;;0.30;99.90;;;;;;5057045;28;20523;-62
2022/11/21 03:07:52;;;;;;;54.10;31.30;;;0.30;99.90;;;;;;5082573;28;20051;-61
2022/11/21 03:10:38;;;;;;;55.70;31.10;;;0.40;99.90;;;;;;5071543;28;20029;-59
2022/11/21 03:13:24;;;;;;;57.40;31.52;;;0.40;99.90;;;;;;5073150;28;20377;-60
2022/11/21 03:16:09;;;;;;;53.30;30.58;;;0.40;99.90;;;;;;5072683;28;20067;-60
2022/11/21 03:18:56;;;;;;;49.45;28.90;;;0.40;99.90;;;;;;5090868;28;20036;-61
2022/11/21 03:21:42;;;;;;;52.55;29.45;;;0.50;99.90;;;;;;5083679;28;20028;-61
2022/11/21 03:24:28;;;;;;;53.15;28.90;;;0.40;99.90;;;;;;5072459;28;20493;-58
2022/11/21 03:27:14;;;;;;;63.00;32.72;;;0.30;99.90;;;;;;5078842;28;20507;-57
2022/11/21 03:30:00;;;;;;;54.70;28.73;;;0.20;99.90;;;;;;5076941;28;20028;-60
2022/11/21 03:32:46;;;;;;;50.75;30.13;;;0.30;99.90;;;;;;5090240;28;20036;-60
2022/11/21 03:35:32;;;;;;;52.92;28.50;;;0.30;99.90;;;;;;5090814;28;20028;-61
2022/11/21 03:38:18;;;;;;;55.40;29.55;;;0.30;99.90;;;;;;5071747;28;20031;-62
2022/11/21 03:41:28;;;;;;;54.97;29.58;;;0.40;99.90;;;;;;5071810;28;20493;-59
2022/11/21 03:44:11;;;;;;;54.08;28.65;;;0.30;99.90;;;;;;5071601;28;20093;-62
2022/11/21 03:46:57;;;;;;;51.22;28.25;;;0.30;99.90;;;;;;5061930;28;20028;-63
2022/11/21 03:49:43;;;;;;;54.33;28.65;;;0.40;99.90;;;;;;5057065;28;20032;-62
2022/11/21 03:52:29;;;;;;;49.22;27.13;;;0.30;99.90;;;;;;5088768;28;20085;-59
2022/11/21 03:55:15;;;;;;;51.92;28.35;;;0.40;99.90;;;;;;5080735;28;20028;-61
2022/11/21 03:58:01;;;;;;;50.67;28.17;;;0.40;99.90;;;;;;5056592;28;20067;-61
2022/11/21 04:00:47;;;;;;;48.28;27.00;;;0.50;99.90;;;;;;5072168;28;20027;-61
2022/11/21 04:03:33;;;;;;;52.75;29.52;;;0.50;99.90;;;;;;5089963;28;20025;-57
2022/11/21 04:06:21;;;;;;;50.42;29.45;;;0.50;99.90;;;;;;5073152;28;20102;-62
2022/11/21 04:09:07;;;;;;;52.15;29.75;;;0.50;99.90;;;;;;5078141;28;20505;-63
2022/11/21 04:11:53;;;;;;;48.92;27.80;;;0.60;99.90;;;;;;5070018;28;20029;-61
2022/11/21 04:14:39;;;;;;;46.95;25.60;;;0.60;99.90;;;;;;5072088;28;20025;-61
2022/11/21 04:17:25;;;;;;;45.83;26.05;;;0.60;99.90;;;;;;5089935;28;20028;-59
2022/11/21 04:20:11;;;;;;;42.63;25.73;;;0.70;99.90;;;;;;5085481;28;20445;-61
2022/11/21 04:22:56;;;;;;;44.40;26.27;;;0.70;99.90;;;;;;5071112;28;20025;-57
2022/11/21 04:25:42;;;;;;;45.95;25.50;;;0.80;99.90;;;;;;5080829;28;20111;-58
2022/11/21 04:28:28;;;;;;;44.15;23.23;;;0.70;99.90;;;;;;5084840;28;20029;-59
2022/11/21 04:31:14;;;;;;;47.95;26.23;;;0.60;99.90;;;;;;5082246;28;20082;-58
2022/11/21 04:34:00;;;;;;;42.97;25.50;;;0.50;99.90;;;;;;5073728;28;20027;-60
2022/11/21 04:36:46;;;;;;;48.72;26.58;;;0.60;99.90;;;;;;5070826;28;20137;-57
2022/11/21 04:39:32;;;;;;;48.08;27.35;;;0.40;99.90;;;;;;5054994;28;20111;-59
2022/11/21 04:42:18;;;;;;;54.67;27.83;;;0.30;99.90;;;;;;5074623;28;20017;-58
2022/11/21 04:45:04;;;;;;;50.63;27.33;;;0.30;99.90;;;;;;5080104;28;20222;-61
2022/11/21 04:47:50;;;;;;;52.03;28.00;;;0.30;99.90;;;;;;5069772;28;20041;-58
2022/11/21 04:50:36;;;;;;;52.92;29.45;;;0.40;99.90;;;;;;5084674;28;20106;-57
2022/11/21 04:53:22;;;;;;;59.92;31.02;;;0.50;99.90;;;;;;5074894;28;20036;-57
2022/11/21 04:56:09;;;;;;;56.50;31.83;;;0.50;99.90;;;;;;5061054;28;20037;-57
2022/11/21 04:58:55;;;;;;;61.30;31.90;;;0.50;99.90;;;;;;5079664;28;20051;-58
2022/11/21 05:01:41;;;;;;;64.97;34.40;;;0.40;99.90;;;;;;5092977;28;20063;-59
2022/11/21 05:04:26;;;;;;;70.60;33.95;;;0.30;99.90;;;;;;5084237;28;20029;-59
2022/11/21 05:07:12;;;;;;;71.93;32.08;;;0.30;99.90;;;;;;5059191;28;20025;-57
2022/11/21 05:09:58;;;;;;;63.95;33.47;;;0.30;99.90;;;;;;5086296;28;20039;-61
2022/11/21 05:15:54;;;;;;;67.00;34.00;;;0.20;99.90;;;;;;5062078;28;20064;-58
2022/11/21 05:18:40;;;;;;;67.63;32.63;;;0.30;99.90;;;;;;5060912;28;20035;-61
2022/11/21 05:21:26;;;;;;;69.30;33.17;;;0.20;99.90;;;;;;5093022;28;20036;-59
2022/11/21 05:24:12;;;;;;;69.68;35.13;;;0.30;99.90;;;;;;5081399;28;20029;-58
2022/11/21 05:26:58;;;;;;;61.17;31.52;;;0.30;99.90;;;;;;5073815;28;20056;-60
2022/11/21 05:29:44;;;;;;;62.97;30.83;;;0.20;99.90;;;;;;5088187;28;20136;-58
2022/11/21 05:32:30;;;;;;;67.38;32.28;;;0.20;99.90;;;;;;5092123;28;20016;-59
2022/11/21 05:35:16;;;;;;;60.97;30.65;;;0.10;99.90;;;;;;5091061;28;20035;-60
2022/11/21 05:38:02;;;;;;;61.83;30.48;;;0.20;99.90;;;;;;5075161;28;20081;-58
2022/11/21 05:40:51;;;;;;;60.80;31.30;;;0.20;99.90;;;;;;5090728;28;20488;-59
2022/11/21 05:43:46;;;;;;;52.67;29.02;;;0.20;99.90;;;;;;5076680;28;20078;-58
2022/11/21 05:46:32;;;;;;;56.97;29.75;;;0.30;99.90;;;;;;5076831;28;20017;-56
2022/11/21 05:49:18;;;;;;;53.80;28.60;;;0.30;99.90;;;;;;5089544;28;20050;-57
2022/11/21 05:52:04;;;;;;;57.75;28.05;;;0.20;99.90;;;;;;5076551;28;20112;-59
2022/11/21 05:54:50;;;;;;;51.20;28.00;;;0.20;99.90;;;;;;5090752;28;20020;-60
2022/11/21 05:57:36;;;;;;;50.70;26.73;;;0.20;99.90;;;;;;5089664;28;20036;-60
2022/11/21 06:00:22;;;;;;;53.58;26.98;;;0.20;99.90;;;;;;5089592;28;20041;-61
2022/11/21 06:06:15;;;;;;;53.60;26.92;;;0.30;99.90;;;;;;5089993;28;20067;-57
2022/11/21 06:09:02;;;;;;;46.30;25.63;;;0.30;99.90;;;;;;5092419;28;20097;-61
2022/11/21 06:11:48;;;;;;;51.55;25.65;;;0.20;99.90;;;;;;5075994;28;20020;-57
2022/11/21 06:14:34;;;;;;;41.88;22.38;;;0.30;99.90;;;;;;5089363;28;20161;-59
2022/11/21 06:17:19;;;;;;;42.60;22.98;;;0.30;99.90;;;;;;5076107;28;20462;-57
2022/11/21 06:20:06;;;;;;;39.53;21.33;;;0.30;99.90;;;;;;5088724;28;20412;-60
2022/11/21 06:22:52;;;;;;;46.45;24.65;;;0.20;99.90;;;;;;5091175;28;20487;-55
2022/11/21 06:25:38;;;;;;;45.63;23.95;;;0.30;99.90;;;;;;5090619;28;20059;-55
2022/11/21 06:28:25;;;;;;;46.92;24.20;;;0.30;99.90;;;;;;5090480;28;20040;-57
2022/11/21 06:31:16;;;;;;;42.53;24.35;;;0.40;99.90;;;;;;5090835;28;20027;-59
2022/11/21 06:34:02;;;;;;;44.13;24.55;;;0.40;99.90;;;;;;5073477;28;20016;-59
2022/11/21 06:36:49;;;;;;;47.92;24.98;;;0.40;99.90;;;;;;5073962;28;20412;-59
2022/11/21 06:39:35;;;;;;;46.88;24.30;;;0.40;99.90;;;;;;5072934;28;20153;-61
2022/11/21 06:42:21;;;;;;;43.70;23.13;;;0.50;99.90;;;;;;5075700;28;20020;-61
2022/11/21 06:45:07;;;;;;;44.70;22.67;;;0.40;99.90;;;;;;5075052;28;20112;-57
2022/11/21 06:47:53;;;;;;;46.50;22.63;;;0.20;99.90;;;;;;5090810;28;20024;-60
2022/11/21 06:50:39;;;;;;;43.72;23.98;;;0.20;99.90;;;;;;5074423;28;20032;-61
2022/11/21 06:53:25;;;;;;;44.80;23.63;;;0.30;99.90;;;;;;5071880;28;20030;-59
2022/11/21 06:56:11;;;;;;;42.95;24.15;;;0.40;99.90;;;;;;5076658;28;20130;-58
2022/11/21 06:58:57;;;;;;;46.30;24.63;;;0.30;99.90;;;;;;5088513;28;20024;-57
2022/11/21 07:01:43;;;;;;;51.05;26.33;;;0.40;99.90;;;;;;5076067;28;20021;-62
2022/11/21 07:04:29;;;;;;;60.83;27.67;;;0.40;99.90;;;;;;5072473;28;20017;-60
2022/11/21 07:07:15;;;;;;;60.08;27.80;;;0.40;99.90;;;;;;5075607;28;20040;-58
2022/11/21 07:10:01;;;;;;;54.53;27.58;;;0.50;99.90;;;;;;5061713;28;20020;-63
2022/11/21 07:15:53;;;;;;;72.18;32.38;;;0.40;99.90;;;;;;5101270;28;20036;-62
2022/11/21 07:18:40;;;;;;;70.75;30.25;;;0.40;99.90;;;;;;5100274;28;20032;-59
2022/11/21 07:21:26;;;;;;;75.97;31.65;;;0.50;99.90;;;;;;5079661;28;20020;-61
2022/11/21 07:24:12;;;;;;;74.00;32.15;;;0.30;99.90;;;;;;5067583;28;20024;-58
2022/11/21 07:27:00;;;;;;;71.90;31.08;;;0.30;99.90;;;;;;5098958;28;20032;-61
2022/11/21 07:29:45;;;;;;;76.28;31.02;;;0.40;99.90;;;;;;5098481;28;20035;-63
2022/11/21 07:32:31;;;;;;;69.85;32.85;;;0.40;99.90;;;;;;5083251;28;20032;-60
2022/11/21 07:35:17;;;;;;;66.47;32.65;;;0.40;99.90;;;;;;5085726;28;20120;-59
2022/11/21 07:38:04;;;;;;;71.63;34.65;;;0.50;99.90;;;;;;5097540;28;20072;-60
2022/11/21 07:40:50;;;;;;;61.35;30.27;;;0.40;99.90;;;;;;5100880;28;20396;-61
2022/11/21 07:43:36;;;;;;;68.68;31.88;;;0.50;99.90;;;;;;5098547;28;20492;-62
2022/11/21 07:46:22;;;;;;;65.50;29.55;;;0.50;99.90;;;;;;5079347;28;20085;-62
2022/11/21 07:49:08;;;;;;;61.83;29.92;;;0.50;99.90;;;;;;5082785;28;20576;-64
2022/11/21 07:51:54;;;;;;;66.38;31.08;;;0.50;99.90;;;;;;5068409;28;20462;-62
2022/11/21 07:54:40;;;;;;;61.60;30.30;;;0.50;99.90;;;;;;5097892;28;20392;-61
2022/11/21 07:57:26;;;;;;;63.90;31.45;;;0.50;99.90;;;;;;5097135;28;20038;-61
2022/11/21 08:00:13;;;;;;;66.20;31.02;;;0.60;99.90;;;;;;5082615;28;20028;-61
2022/11/21 08:02:59;;;;;;;57.33;29.80;;;0.40;99.90;;;;;;5078538;28;20107;-63
2022/11/21 08:05:45;;;;;;;61.15;29.63;;;0.40;99.90;;;;;;5067834;28;20446;-62
2022/11/21 08:08:31;;;;;;;55.15;27.13;;;0.50;99.90;;;;;;5085146;28;20028;-62
2022/11/21 08:11:17;;;;;;;52.63;27.33;;;0.60;99.90;;;;;;5085205;28;20028;-62
2022/11/21 08:14:03;;;;;;;55.13;30.08;;;0.60;99.90;;;;;;5080287;28;20036;-63
2022/11/21 08:16:51;;;;;;;55.17;28.08;;;0.70;99.90;;;;;;5084358;28;20028;-59
2022/11/21 08:19:37;;;;;;;55.42;28.13;;;0.50;99.90;;;;;;5099550;28;20076;-63
2022/11/21 08:22:23;;;;;;;61.85;30.42;;;0.50;99.90;;;;;;5093512;28;20016;-64
2022/11/21 08:25:10;;;;;;;58.05;29.20;;;0.60;99.90;;;;;;5080865;28;20028;-64
2022/11/21 08:27:56;;;;;;;69.60;33.15;;;0.70;99.90;;;;;;5084724;28;20400;-60
2022/11/21 08:30:43;;;;;;;65.78;32.10;;;0.70;99.90;;;;;;5092345;28;20020;-63
2022/11/21 08:33:29;;;;;;;62.05;31.73;;;0.70;99.90;;;;;;5094002;28;20027;-63
2022/11/21 08:36:15;;;;;;;67.38;31.50;;;0.80;99.90;;;;;;5088257;28;20037;-62
2022/11/21 08:39:02;;;;;;;62.40;31.42;;;0.90;99.90;;;;;;5088365;28;20029;-62
2022/11/21 08:42:03;;;;;;;59.10;30.15;;;0.80;99.90;;;;;;5088169;28;20021;-62
2022/11/21 08:44:49;;;;;;;60.83;30.98;;;0.90;99.90;;;;;;5072567;28;20071;-60
2022/11/21 08:47:35;;;;;;;58.45;29.38;;;1.00;99.90;;;;;;5088504;28;20114;-62
2022/11/21 08:50:21;;;;;;;59.83;31.15;;;0.80;99.90;;;;;;5081425;28;20028;-61
2022/11/21 08:53:07;;;;;;;52.65;27.55;;;1.00;99.90;;;;;;5097000;28;20032;-63
2022/11/21 08:55:53;;;;;;;53.22;28.42;;;1.00;99.90;;;;;;5077308;28;20374;-62
2022/11/21 08:58:39;;;;;;;51.47;27.00;;;1.10;99.90;;;;;;5090196;28;20024;-62
2022/11/21 09:01:25;;;;;;;47.78;26.58;;;1.10;99.90;;;;;;5087778;28;20036;-63
2022/11/21 09:04:11;;;;;;;52.80;27.63;;;1.10;99.90;;;;;;5099117;28;20115;-63
2022/11/21 09:06:57;;;;;;;48.75;27.30;;;1.00;99.90;;;;;;5089927;28;20036;-62
2022/11/21 09:09:43;;;;;;;47.47;25.20;;;1.20;99.90;;;;;;5058880;28;20029;-63
2022/11/21 09:12:30;;;;;;;44.42;22.90;;;1.30;99.90;;;;;;5076710;28;20033;-62
2022/11/21 09:18:20;;;;;;;38.90;23.63;;;1.20;99.90;;;;;;5095515;28;20120;-63
2022/11/21 09:21:06;;;;;;;35.83;22.02;;;1.10;99.90;;;;;;5095772;28;20550;-62
2022/11/21 09:23:52;;;;;;;39.47;24.73;;;1.20;99.90;;;;;;5075175;28;20029;-63
2022/11/21 09:26:38;;;;;;;37.53;22.80;;;1.30;99.90;;;;;;5077658;28;20016;-63
2022/11/21 09:29:24;;;;;;;33.45;20.15;;;1.30;99.90;;;;;;5079895;28;20024;-62
2022/11/21 09:32:10;;;;;;;36.30;21.48;;;1.30;99.90;;;;;;5095835;28;20035;-62
2022/11/21 09:34:56;;;;;;;33.28;19.00;;;1.10;99.90;;;;;;5079941;28;20032;-60
2022/11/21 09:37:41;;;;;;;36.97;21.08;;;1.20;99.90;;;;;;5048309;28;20036;-63
2022/11/21 09:40:29;;;;;;;33.90;20.92;;;1.20;99.90;;;;;;5061614;28;20405;-63
2022/11/21 09:43:34;;;;;;;32.95;18.63;;;1.30;99.90;;;;;;5064050;28;20051;-62
2022/11/21 09:46:29;;;;;;;34.28;19.58;;;1.30;99.90;;;;;;5095903;28;20016;-63
2022/11/21 09:49:16;;;;;;;31.25;18.35;;;1.20;99.90;;;;;;5073052;28;20024;-63
2022/11/21 09:52:02;;;;;;;35.67;18.75;;;1.20;99.90;;;;;;5080975;28;20088;-65
2022/11/21 09:54:57;;;;;;;32.45;18.13;;;1.30;99.90;;;;;;5038676;28;20565;-64
2022/11/21 09:57:46;;;;;;;35.20;19.38;;;1.40;99.90;;;;;;5102043;28;20441;-62
2022/11/21 10:00:32;;;;;;;33.20;18.48;;;1.40;99.90;;;;;;5106911;28;20111;-65
2022/11/21 10:03:21;;;;;;;30.48;18.70;;;1.40;99.90;;;;;;5063111;28;20044;-63
2022/11/21 10:06:20;;;;;;;32.58;19.30;;;1.50;99.90;;;;;;5090370;28;20020;-64
2022/11/21 10:09:17;;;;;;;32.78;18.85;;;1.50;99.90;;;;;;5095795;28;20025;-62
2022/11/21 10:12:36;;;;;;;28.25;17.55;;;1.50;99.90;;;;;;5095421;28;20020;-63
2022/11/21 10:15:24;;;;;;;33.25;18.80;;;1.60;99.90;;;;;;5097299;28;20075;-61
2022/11/21 10:18:45;;;;;;;30.67;17.00;;;1.60;99.90;;;;;;5080595;28;20028;-64
2022/11/21 10:21:54;;;;;;;29.38;16.85;;;1.70;99.90;;;;;;5094856;28;20023;-62
2022/11/21 10:25:14;;;;;;;32.30;17.80;;;1.70;99.90;;;;;;5095337;28;20024;-63
2022/11/21 10:28:21;;;;;;;36.45;20.00;;;1.70;99.90;;;;;;5079653;28;20492;-64
2022/11/21 10:31:12;;;;;;;33.92;19.08;;;1.60;99.90;;;;;;5095272;28;20057;-62
2022/11/21 10:34:01;;;;;;;31.52;17.70;;;1.70;99.90;;;;;;5081600;28;20028;-61
2022/11/21 10:36:55;;;;;;;39.25;17.65;;;1.80;99.90;;;;;;5094509;28;20024;-63
2022/11/21 10:39:47;;;;;;;31.10;17.55;;;1.80;99.90;;;;;;5094225;28;20048;-62
2022/11/21 10:42:50;;;;;;;33.30;16.98;;;1.80;99.90;;;;;;5094447;28;20101;-62
2022/11/21 10:45:35;;;;;;;24.98;15.75;;;1.90;99.90;;;;;;5095324;28;20024;-62
2022/11/21 10:48:21;;;;;;;28.73;16.33;;;1.80;99.90;;;;;;5094903;28;20024;-62
2022/11/21 10:51:23;;;;;;;24.23;15.70;;;1.80;99.90;;;;;;5078733;28;20032;-63
2022/11/21 10:57:19;;;;;;;25.15;15.68;;;1.70;99.90;;;;;;5094605;28;20463;-64
2022/11/21 11:00:16;;;;;;;25.40;15.45;;;1.80;99.90;;;;;;5094384;28;20066;-61
2022/11/21 11:03:14;;;;;;;23.30;15.05;;;2.00;99.90;;;;;;5094578;28;20016;-65
2022/11/21 11:06:00;;;;;;;24.95;14.43;;;2.10;99.90;;;;;;5068125;28;20047;-62
2022/11/21 11:08:51;;;;;;;24.83;14.80;;;2.20;99.90;;;;;;5079941;28;20044;-62
2022/11/21 11:11:37;;;;;;;22.42;13.63;;;2.20;99.90;;;;;;5095605;28;20031;-62
2022/11/21 11:14:30;;;;;;;24.55;15.50;;;2.20;99.90;;;;;;5096152;28;20028;-62
2022/11/21 11:17:28;;;;;;;23.75;14.75;;;2.30;99.90;;;;;;5081967;28;20100;-62
2022/11/21 11:20:43;;;;;;;25.50;14.50;;;2.20;99.90;;;;;;5096429;28;20035;-62
2022/11/21 11:23:32;;;;;;;23.83;14.55;;;2.30;99.90;;;;;;5095976;28;20576;-63
2022/11/21 11:26:28;;;;;;;21.25;13.57;;;2.40;99.90;;;;;;5097866;28;20031;-64
2022/11/21 11:29:47;;;;;;;19.92;14.48;;;2.50;99.90;;;;;;5078038;28;20024;-63
2022/11/21 11:32:39;;;;;;;27.08;15.55;;;2.50;99.90;;;;;;5095736;28;20024;-62
2022/11/21 11:35:32;;;;;;;25.10;14.63;;;2.50;99.90;;;;;;5080228;28;20113;-63
2022/11/21 11:38:25;;;;;;;22.67;13.77;;;2.40;99.90;;;;;;5096701;28;20391;-63
2022/11/21 11:48:18;;;;;;;22.88;12.52;;;2.50;99.90;;;;;;5097800;28;20077;-62
2022/11/21 11:51:30;;;;;;;19.08;12.50;;;2.40;99.90;;;;;;5083114;28;20036;-63
2022/11/21 11:54:20;;;;;;;19.15;12.60;;;2.50;99.90;;;;;;5083446;28;20422;-63
2022/11/21 11:57:08;;;;;;;19.88;13.55;;;2.50;99.90;;;;;;5083674;28;20020;-63
2022/11/21 12:00:58;;;;;;;24.13;13.63;;;2.40;99.90;;;;;;5069903;28;20048;-63
2022/11/21 12:03:58;;;;;;;25.23;15.52;;;2.20;99.90;;;;;;4984576;28;20108;-63
2022/11/21 12:06:53;;;;;;;23.17;15.48;;;2.20;99.90;;;;;;5001963;28;20058;-62
2022/11/21 12:09:47;;;;;;;27.42;15.65;;;2.30;99.90;;;;;;5106739;28;20109;-63
2022/11/21 12:12:38;;;;;;;23.70;15.02;;;2.40;99.90;;;;;;5104590;28;20035;-62
2022/11/21 12:15:49;;;;;;;23.08;15.35;;;2.50;99.90;;;;;;5088820;28;20016;-64
2022/11/21 12:18:57;;;;;;;27.88;16.55;;;2.60;99.90;;;;;;5103019;28;20403;-63
2022/11/21 12:21:43;;;;;;;27.73;17.13;;;2.60;99.90;;;;;;5100981;28;20028;-62
2022/11/21 12:24:29;;;;;;;27.48;17.58;;;2.40;99.90;;;;;;5102833;28;20488;-62
2022/11/21 12:27:33;;;;;;;29.75;17.58;;;2.40;99.90;;;;;;5075273;28;20032;-62
2022/11/21 12:30:47;;;;;;;29.08;18.45;;;2.50;99.90;;;;;;5102797;28;20553;-61
2022/11/21 12:33:41;;;;;;;42.90;25.30;;;2.50;99.90;;;;;;5090934;28;20122;-63
2022/11/21 12:36:32;;;;;;;32.60;18.08;;;2.60;99.90;;;;;;5092039;28;20036;-63
2022/11/21 12:40:17;;;;;;;28.70;17.38;;;2.50;99.90;;;;;;5104381;28;20035;-63
2022/11/21 12:43:34;;;;;;;36.50;20.13;;;2.60;99.90;;;;;;5060307;28;20035;-64
2022/11/21 12:46:26;;;;;;;38.22;20.85;;;2.60;99.90;;;;;;5102036;28;20027;-62
2022/11/21 12:55:40;;;;;;;34.80;21.40;;;2.70;99.90;;;;;;5101941;28;20089;-65
2022/11/21 12:58:32;;;;;;;41.25;22.75;;;2.70;99.90;;;;;;5087003;28;20024;-64
2022/11/21 13:01:22;;;;;;;38.97;22.90;;;2.70;99.90;;;;;;5086370;28;20027;-63
2022/11/21 13:04:15;;;;;;;40.75;24.08;;;2.70;99.90;;;;;;5075816;28;20051;-62
2022/11/21 13:07:03;;;;;;;40.72;23.35;;;2.70;99.90;;;;;;5101961;28;20635;-63
2022/11/21 13:09:52;;;;;;;41.28;24.67;;;2.70;99.90;;;;;;5074441;28;20054;-62
2022/11/21 13:12:47;;;;;;;46.47;24.65;;;2.70;99.90;;;;;;5072934;28;20040;-61
2022/11/21 13:15:47;;;;;;;51.67;27.05;;;2.70;99.90;;;;;;5086050;28;20024;-65
2022/11/21 13:18:44;;;;;;;58.50;28.63;;;2.70;99.90;;;;;;5087921;28;20050;-63
2022/11/21 13:21:48;;;;;;;45.42;24.80;;;2.70;99.90;;;;;;5100935;28;20020;-62
2022/11/21 13:24:43;;;;;;;46.65;26.42;;;2.70;99.90;;;;;;5088313;28;20051;-63
2022/11/21 13:27:49;;;;;;;50.10;27.30;;;2.60;99.90;;;;;;5100548;28;20031;-63
2022/11/21 13:30:51;;;;;;;61.83;31.27;;;2.60;99.90;;;;;;5100615;28;20040;-63
2022/11/21 13:33:40;;;;;;;66.53;32.22;;;2.50;99.90;;;;;;5101793;28;20020;-63
2022/11/21 13:36:32;;;;;;;64.85;31.30;;;2.50;99.90;;;;;;5101627;28;20029;-62
2022/11/21 13:39:32;;;;;;;63.47;32.63;;;2.50;99.90;;;;;;5086302;28;20035;-65
2022/11/21 13:45:48;;;;;;;76.00;35.38;;;2.40;99.90;;;;;;5100534;28;20396;-62
2022/11/21 13:48:53;;;;;;;74.20;35.33;;;2.30;99.90;;;;;;5103533;28;20060;-62
2022/11/21 13:51:51;;;;;;;73.00;35.38;;;2.30;99.90;;;;;;5101961;28;20190;-63
2022/11/21 13:55:06;;;;;;;72.40;32.67;;;2.30;99.90;;;;;;5085706;28;20173;-62
2022/11/21 13:58:11;;;;;;;68.53;32.72;;;2.20;99.90;;;;;;5100232;28;20035;-64
2022/11/21 14:01:18;;;;;;;58.23;29.90;;;2.20;99.90;;;;;;5083821;28;20020;-63
2022/11/21 14:04:23;;;;;;;58.83;29.80;;;2.20;99.90;;;;;;5071731;28;20024;-64
2022/11/21 14:07:30;;;;;;;58.40;29.42;;;2.30;99.90;;;;;;5084702;28;20456;-63
2022/11/21 14:10:34;;;;;;;62.00;31.02;;;2.30;99.90;;;;;;5069996;28;20032;-63
2022/11/21 14:13:33;;;;;;;56.60;29.75;;;2.20;99.90;;;;;;5069603;28;20107;-66
2022/11/21 14:16:25;;;;;;;60.03;30.25;;;2.20;99.90;;;;;;5098696;28;20785;-65
2022/11/21 14:19:18;;;;;;;60.53;31.27;;;2.20;99.90;;;;;;5082754;28;20114;-63
2022/11/21 14:22:04;;;;;;;71.63;32.47;;;2.30;99.90;;;;;;5070245;28;20070;-62
2022/11/21 14:24:52;;;;;;;76.25;37.30;;;2.30;99.90;;;;;;5069877;28;20024;-63
2022/11/21 14:27:40;;;;;;;85.72;41.75;;;2.30;99.90;;;;;;5098420;28;20028;-64
2022/11/21 14:30:36;;;;;;;76.95;37.28;;;2.20;99.90;;;;;;5099882;28;20024;-63
2022/11/21 14:33:27;;;;;;;89.07;40.30;;;2.10;99.90;;;;;;5070712;28;20516;-64
2022/11/21 14:36:23;;;;;;;75.53;36.13;;;2.10;99.90;;;;;;5084701;28;20032;-62
2022/11/21 14:39:16;;;;;;;74.20;34.90;;;2.00;99.90;;;;;;5084695;28;20028;-65
2022/11/21 14:42:08;;;;;;;71.30;34.50;;;2.00;99.90;;;;;;5097068;28;20563;-64
2022/11/21 14:45:16;;;;;;;75.80;34.80;;;1.90;99.90;;;;;;5083842;28;20536;-64
2022/11/21 14:48:13;;;;;;;63.75;32.45;;;2.00;99.90;;;;;;5096143;28;20442;-63
2022/11/21 14:51:00;;;;;;;52.78;26.67;;;2.00;99.90;;;;;;5081812;28;20032;-65
2022/11/21 14:53:48;;;;;;;57.42;28.08;;;2.00;99.90;;;;;;5096931;28;20055;-64
2022/11/21 14:56:34;;;;;;;50.00;25.55;;;2.10;99.90;;;;;;5080916;28;20507;-64
2022/11/21 14:59:24;;;;;;;48.17;24.38;;;2.00;99.90;;;;;;5081377;28;20032;-64
2022/11/21 15:02:25;;;;;;;52.10;27.27;;;2.10;99.90;;;;;;5096261;28;20020;-65
2022/11/21 15:05:14;;;;;;;51.72;24.88;;;2.10;99.90;;;;;;5094049;28;20020;-68